sensor_id;sensor_type;location;lat;lon;timestamp;P1;durP1;ratioP1;P2;durP2;ratioP2
38053;SDS011;23859;50.672;7.164;2022-12-08T00:01:13;26.60;;;15.30;;
38053;SDS011;23859;50.672;7.164;2022-12-08T00:03:41;31.17;;;15.30;;
38053;SDS011;23859;50.672;7.164;2022-12-08T00:06:11;30.17;;;15.68;;
38053;SDS011;23859;50.672;7.164;2022-12-08T00:12:04;26.65;;;14.30;;
38053;SDS011;23859;50.672;7.164;2022-12-08T00:14:39;27.27;;;14.88;;
38053;SDS011;23859;50.672;7.164;2022-12-08T00:17:08;28.90;;;15.25;;
38053;SDS011;23859;50.672;7.164;2022-12-08T00:19:35;28.30;;;15.25;;
38053;SDS011;23859;50.672;7.164;2022-12-08T00:22:06;28.38;;;13.77;;
38053;SDS011;23859;50.672;7.164;2022-12-08T00:24:34;26.52;;;15.23;;
38053;SDS011;23859;50.672;7.164;2022-12-08T00:27:03;26.80;;;14.48;;
38053;SDS011;23859;50.672;7.164;2022-12-08T00:29:30;27.95;;;13.70;;
38053;SDS011;23859;50.672;7.164;2022-12-08T00:31:56;27.23;;;14.65;;
38053;SDS011;23859;50.672;7.164;2022-12-08T00:34:22;23.90;;;13.68;;
38053;SDS011;23859;50.672;7.164;2022-12-08T00:36:48;24.73;;;13.23;;
38053;SDS011;23859;50.672;7.164;2022-12-08T00:39:15;19.60;;;12.50;;
38053;SDS011;23859;50.672;7.164;2022-12-08T00:41:42;22.25;;;12.98;;
38053;SDS011;23859;50.672;7.164;2022-12-08T00:44:27;27.10;;;13.52;;
38053;SDS011;23859;50.672;7.164;2022-12-08T00:46:53;24.45;;;13.10;;
38053;SDS011;23859;50.672;7.164;2022-12-08T00:49:20;23.77;;;12.32;;
38053;SDS011;23859;50.672;7.164;2022-12-08T00:51:46;24.60;;;12.70;;
38053;SDS011;23859;50.672;7.164;2022-12-08T00:54:12;20.70;;;11.95;;
38053;SDS011;23859;50.672;7.164;2022-12-08T00:56:40;23.02;;;11.77;;
38053;SDS011;23859;50.672;7.164;2022-12-08T00:59:06;27.40;;;13.07;;
38053;SDS011;23859;50.672;7.164;2022-12-08T01:01:32;23.00;;;12.05;;
38053;SDS011;23859;50.672;7.164;2022-12-08T01:04:05;24.27;;;12.57;;
38053;SDS011;23859;50.672;7.164;2022-12-08T01:06:34;23.58;;;11.88;;
38053;SDS011;23859;50.672;7.164;2022-12-08T01:09:02;23.45;;;11.65;;
38053;SDS011;23859;50.672;7.164;2022-12-08T01:11:29;23.13;;;11.70;;
38053;SDS011;23859;50.672;7.164;2022-12-08T01:13:56;26.13;;;12.55;;
38053;SDS011;23859;50.672;7.164;2022-12-08T01:16:23;24.77;;;11.32;;
38053;SDS011;23859;50.672;7.164;2022-12-08T01:18:50;20.23;;;10.85;;
38053;SDS011;23859;50.672;7.164;2022-12-08T01:21:17;25.60;;;12.13;;
38053;SDS011;23859;50.672;7.164;2022-12-08T01:23:44;19.58;;;11.38;;
38053;SDS011;23859;50.672;7.164;2022-12-08T01:26:11;19.15;;;10.18;;
38053;SDS011;23859;50.672;7.164;2022-12-08T01:28:39;21.50;;;10.98;;
38053;SDS011;23859;50.672;7.164;2022-12-08T01:31:09;21.27;;;10.32;;
38053;SDS011;23859;50.672;7.164;2022-12-08T01:33:43;17.88;;;9.85;;
38053;SDS011;23859;50.672;7.164;2022-12-08T01:38:44;19.50;;;9.70;;
38053;SDS011;23859;50.672;7.164;2022-12-08T01:41:14;14.73;;;9.05;;
38053;SDS011;23859;50.672;7.164;2022-12-08T01:43:42;21.70;;;10.05;;
38053;SDS011;23859;50.672;7.164;2022-12-08T01:46:18;20.92;;;10.77;;
38053;SDS011;23859;50.672;7.164;2022-12-08T01:48:44;26.38;;;12.07;;
38053;SDS011;23859;50.672;7.164;2022-12-08T01:51:10;23.98;;;10.70;;
38053;SDS011;23859;50.672;7.164;2022-12-08T01:53:37;20.17;;;11.23;;
38053;SDS011;23859;50.672;7.164;2022-12-08T01:56:10;17.73;;;11.07;;
38053;SDS011;23859;50.672;7.164;2022-12-08T01:58:44;17.83;;;10.63;;
38053;SDS011;23859;50.672;7.164;2022-12-08T02:01:15;19.57;;;9.63;;
38053;SDS011;23859;50.672;7.164;2022-12-08T02:03:44;19.73;;;10.30;;
38053;SDS011;23859;50.672;7.164;2022-12-08T02:06:19;17.20;;;10.48;;
38053;SDS011;23859;50.672;7.164;2022-12-08T02:08:46;15.63;;;9.63;;
38053;SDS011;23859;50.672;7.164;2022-12-08T02:11:13;17.27;;;9.20;;
38053;SDS011;23859;50.672;7.164;2022-12-08T02:13:40;18.02;;;10.18;;
38053;SDS011;23859;50.672;7.164;2022-12-08T02:22:24;14.38;;;8.40;;
38053;SDS011;23859;50.672;7.164;2022-12-08T02:27:50;17.33;;;7.05;;
38053;SDS011;23859;50.672;7.164;2022-12-08T02:36:27;15.02;;;7.40;;
38053;SDS011;23859;50.672;7.164;2022-12-08T02:44:53;18.90;;;9.48;;
38053;SDS011;23859;50.672;7.164;2022-12-08T02:47:43;22.63;;;9.80;;
38053;SDS011;23859;50.672;7.164;2022-12-08T02:50:09;21.55;;;9.18;;
38053;SDS011;23859;50.672;7.164;2022-12-08T02:52:43;16.13;;;8.68;;
38053;SDS011;23859;50.672;7.164;2022-12-08T02:55:13;18.08;;;9.55;;
38053;SDS011;23859;50.672;7.164;2022-12-08T03:00:47;14.13;;;9.48;;
38053;SDS011;23859;50.672;7.164;2022-12-08T03:06:41;19.77;;;9.95;;
38053;SDS011;23859;50.672;7.164;2022-12-08T03:09:16;19.60;;;10.23;;
38053;SDS011;23859;50.672;7.164;2022-12-08T03:11:55;12.20;;;8.00;;
38053;SDS011;23859;50.672;7.164;2022-12-08T03:14:49;14.77;;;9.02;;
38053;SDS011;23859;50.672;7.164;2022-12-08T03:17:17;14.98;;;8.52;;
38053;SDS011;23859;50.672;7.164;2022-12-08T03:19:46;15.98;;;8.73;;
38053;SDS011;23859;50.672;7.164;2022-12-08T03:22:14;17.70;;;9.55;;
38053;SDS011;23859;50.672;7.164;2022-12-08T03:24:44;17.65;;;8.73;;
38053;SDS011;23859;50.672;7.164;2022-12-08T03:27:16;16.10;;;8.85;;
38053;SDS011;23859;50.672;7.164;2022-12-08T03:29:45;19.20;;;9.20;;
38053;SDS011;23859;50.672;7.164;2022-12-08T03:32:36;19.42;;;9.18;;
38053;SDS011;23859;50.672;7.164;2022-12-08T03:35:07;16.20;;;8.73;;
38053;SDS011;23859;50.672;7.164;2022-12-08T03:37:38;17.08;;;8.13;;
38053;SDS011;23859;50.672;7.164;2022-12-08T03:40:06;16.70;;;7.85;;
38053;SDS011;23859;50.672;7.164;2022-12-08T03:42:34;15.63;;;8.77;;
38053;SDS011;23859;50.672;7.164;2022-12-08T03:45:00;19.35;;;9.32;;
38053;SDS011;23859;50.672;7.164;2022-12-08T03:47:28;13.40;;;7.93;;
38053;SDS011;23859;50.672;7.164;2022-12-08T03:49:54;14.57;;;8.27;;
38053;SDS011;23859;50.672;7.164;2022-12-08T03:52:20;16.48;;;8.52;;
38053;SDS011;23859;50.672;7.164;2022-12-08T03:54:46;15.50;;;8.05;;
38053;SDS011;23859;50.672;7.164;2022-12-08T03:57:12;20.55;;;9.23;;
38053;SDS011;23859;50.672;7.164;2022-12-08T03:59:38;17.67;;;7.85;;
38053;SDS011;23859;50.672;7.164;2022-12-08T04:02:04;11.65;;;8.30;;
38053;SDS011;23859;50.672;7.164;2022-12-08T04:04:30;13.43;;;8.13;;
38053;SDS011;23859;50.672;7.164;2022-12-08T04:06:56;16.73;;;8.90;;
38053;SDS011;23859;50.672;7.164;2022-12-08T04:09:22;14.88;;;8.70;;
38053;SDS011;23859;50.672;7.164;2022-12-08T04:11:48;19.00;;;9.32;;
38053;SDS011;23859;50.672;7.164;2022-12-08T04:14:14;16.02;;;8.63;;
38053;SDS011;23859;50.672;7.164;2022-12-08T04:16:40;22.15;;;10.25;;
38053;SDS011;23859;50.672;7.164;2022-12-08T04:19:06;14.75;;;8.05;;
38053;SDS011;23859;50.672;7.164;2022-12-08T04:21:33;21.15;;;9.32;;
38053;SDS011;23859;50.672;7.164;2022-12-08T04:23:59;19.90;;;8.95;;
38053;SDS011;23859;50.672;7.164;2022-12-08T04:26:25;18.30;;;8.90;;
38053;SDS011;23859;50.672;7.164;2022-12-08T04:28:51;14.15;;;8.70;;
38053;SDS011;23859;50.672;7.164;2022-12-08T04:31:17;16.98;;;8.68;;
38053;SDS011;23859;50.672;7.164;2022-12-08T04:33:43;18.35;;;8.93;;
38053;SDS011;23859;50.672;7.164;2022-12-08T04:36:09;14.75;;;8.60;;
38053;SDS011;23859;50.672;7.164;2022-12-08T04:38:35;18.40;;;9.32;;
38053;SDS011;23859;50.672;7.164;2022-12-08T04:41:02;18.90;;;9.55;;
38053;SDS011;23859;50.672;7.164;2022-12-08T04:43:28;13.35;;;8.50;;
38053;SDS011;23859;50.672;7.164;2022-12-08T04:45:54;18.42;;;9.80;;
38053;SDS011;23859;50.672;7.164;2022-12-08T04:48:20;16.33;;;9.35;;
38053;SDS011;23859;50.672;7.164;2022-12-08T04:50:46;17.08;;;9.45;;
38053;SDS011;23859;50.672;7.164;2022-12-08T04:53:12;19.92;;;8.48;;
38053;SDS011;23859;50.672;7.164;2022-12-08T04:55:39;14.68;;;8.82;;
38053;SDS011;23859;50.672;7.164;2022-12-08T04:58:10;15.55;;;8.85;;
38053;SDS011;23859;50.672;7.164;2022-12-08T05:00:40;16.33;;;9.32;;
38053;SDS011;23859;50.672;7.164;2022-12-08T05:03:07;17.75;;;9.10;;
38053;SDS011;23859;50.672;7.164;2022-12-08T05:05:33;15.48;;;9.32;;
38053;SDS011;23859;50.672;7.164;2022-12-08T05:07:59;17.23;;;8.68;;
38053;SDS011;23859;50.672;7.164;2022-12-08T05:10:25;14.40;;;9.27;;
38053;SDS011;23859;50.672;7.164;2022-12-08T05:12:51;15.30;;;8.85;;
38053;SDS011;23859;50.672;7.164;2022-12-08T05:15:17;16.67;;;9.40;;
38053;SDS011;23859;50.672;7.164;2022-12-08T05:17:43;15.40;;;9.32;;
38053;SDS011;23859;50.672;7.164;2022-12-08T05:20:10;17.75;;;8.95;;
38053;SDS011;23859;50.672;7.164;2022-12-08T05:22:36;16.23;;;9.60;;
38053;SDS011;23859;50.672;7.164;2022-12-08T05:25:02;15.95;;;9.18;;
38053;SDS011;23859;50.672;7.164;2022-12-08T05:27:28;18.83;;;9.48;;
38053;SDS011;23859;50.672;7.164;2022-12-08T05:29:54;14.27;;;8.38;;
38053;SDS011;23859;50.672;7.164;2022-12-08T05:32:20;17.23;;;9.70;;
38053;SDS011;23859;50.672;7.164;2022-12-08T05:34:46;16.30;;;9.65;;
38053;SDS011;23859;50.672;7.164;2022-12-08T05:37:12;16.58;;;10.23;;
38053;SDS011;23859;50.672;7.164;2022-12-08T05:39:39;14.63;;;9.35;;
38053;SDS011;23859;50.672;7.164;2022-12-08T05:42:05;19.67;;;9.80;;
38053;SDS011;23859;50.672;7.164;2022-12-08T05:44:31;20.08;;;10.57;;
38053;SDS011;23859;50.672;7.164;2022-12-08T05:46:57;15.43;;;9.63;;
38053;SDS011;23859;50.672;7.164;2022-12-08T05:49:23;17.30;;;10.32;;
38053;SDS011;23859;50.672;7.164;2022-12-08T05:51:49;21.73;;;10.25;;
38053;SDS011;23859;50.672;7.164;2022-12-08T05:54:15;18.52;;;9.43;;
38053;SDS011;23859;50.672;7.164;2022-12-08T05:56:41;19.13;;;10.50;;
38053;SDS011;23859;50.672;7.164;2022-12-08T05:59:07;23.83;;;9.77;;
38053;SDS011;23859;50.672;7.164;2022-12-08T06:01:33;19.20;;;9.77;;
38053;SDS011;23859;50.672;7.164;2022-12-08T06:04:00;21.55;;;11.02;;
38053;SDS011;23859;50.672;7.164;2022-12-08T06:06:28;19.70;;;10.30;;
38053;SDS011;23859;50.672;7.164;2022-12-08T06:08:55;18.55;;;10.52;;
38053;SDS011;23859;50.672;7.164;2022-12-08T06:11:22;17.85;;;10.23;;
38053;SDS011;23859;50.672;7.164;2022-12-08T06:13:53;24.25;;;10.35;;
38053;SDS011;23859;50.672;7.164;2022-12-08T06:16:20;20.15;;;9.65;;
38053;SDS011;23859;50.672;7.164;2022-12-08T06:18:47;17.80;;;9.88;;
38053;SDS011;23859;50.672;7.164;2022-12-08T06:21:13;16.45;;;9.35;;
38053;SDS011;23859;50.672;7.164;2022-12-08T06:23:40;18.70;;;9.57;;
38053;SDS011;23859;50.672;7.164;2022-12-08T06:26:08;21.38;;;10.73;;
38053;SDS011;23859;50.672;7.164;2022-12-08T06:28:36;20.10;;;10.25;;
38053;SDS011;23859;50.672;7.164;2022-12-08T06:31:14;22.77;;;10.65;;
38053;SDS011;23859;50.672;7.164;2022-12-08T06:33:42;19.00;;;11.27;;
38053;SDS011;23859;50.672;7.164;2022-12-08T06:36:09;16.67;;;10.32;;
38053;SDS011;23859;50.672;7.164;2022-12-08T06:38:37;19.67;;;10.52;;
38053;SDS011;23859;50.672;7.164;2022-12-08T06:41:03;36.10;;;11.15;;
38053;SDS011;23859;50.672;7.164;2022-12-08T06:43:30;19.75;;;10.13;;
38053;SDS011;23859;50.672;7.164;2022-12-08T06:45:57;18.33;;;10.07;;
38053;SDS011;23859;50.672;7.164;2022-12-08T06:48:24;22.40;;;9.80;;
38053;SDS011;23859;50.672;7.164;2022-12-08T06:50:50;17.73;;;9.43;;
38053;SDS011;23859;50.672;7.164;2022-12-08T06:53:16;17.75;;;10.45;;
38053;SDS011;23859;50.672;7.164;2022-12-08T06:55:50;19.70;;;9.68;;
38053;SDS011;23859;50.672;7.164;2022-12-08T06:58:17;20.15;;;9.05;;
38053;SDS011;23859;50.672;7.164;2022-12-08T07:00:44;17.23;;;9.30;;
38053;SDS011;23859;50.672;7.164;2022-12-08T07:03:10;19.30;;;8.95;;
38053;SDS011;23859;50.672;7.164;2022-12-08T07:05:38;20.38;;;10.77;;
38053;SDS011;23859;50.672;7.164;2022-12-08T07:08:06;18.77;;;10.38;;
38053;SDS011;23859;50.672;7.164;2022-12-08T07:10:33;16.77;;;9.45;;
38053;SDS011;23859;50.672;7.164;2022-12-08T07:12:59;15.25;;;8.85;;
38053;SDS011;23859;50.672;7.164;2022-12-08T07:15:25;16.38;;;8.98;;
38053;SDS011;23859;50.672;7.164;2022-12-08T07:17:52;13.05;;;7.20;;
38053;SDS011;23859;50.672;7.164;2022-12-08T07:20:18;15.90;;;8.18;;
38053;SDS011;23859;50.672;7.164;2022-12-08T07:22:50;15.68;;;8.43;;
38053;SDS011;23859;50.672;7.164;2022-12-08T07:25:17;23.95;;;11.18;;
38053;SDS011;23859;50.672;7.164;2022-12-08T07:27:44;15.73;;;8.82;;
38053;SDS011;23859;50.672;7.164;2022-12-08T07:30:10;13.20;;;8.18;;
38053;SDS011;23859;50.672;7.164;2022-12-08T07:32:38;15.88;;;8.57;;
38053;SDS011;23859;50.672;7.164;2022-12-08T07:35:05;16.27;;;8.13;;
38053;SDS011;23859;50.672;7.164;2022-12-08T07:37:32;17.52;;;8.02;;
38053;SDS011;23859;50.672;7.164;2022-12-08T07:39:58;18.75;;;8.90;;
38053;SDS011;23859;50.672;7.164;2022-12-08T07:42:25;18.98;;;9.38;;
38053;SDS011;23859;50.672;7.164;2022-12-08T07:44:51;12.52;;;7.72;;
38053;SDS011;23859;50.672;7.164;2022-12-08T07:47:17;17.70;;;7.05;;
38053;SDS011;23859;50.672;7.164;2022-12-08T07:49:43;12.48;;;7.40;;
38053;SDS011;23859;50.672;7.164;2022-12-08T07:52:09;15.40;;;7.05;;
38053;SDS011;23859;50.672;7.164;2022-12-08T07:54:35;12.70;;;7.22;;
38053;SDS011;23859;50.672;7.164;2022-12-08T07:57:01;13.57;;;7.05;;
38053;SDS011;23859;50.672;7.164;2022-12-08T07:59:29;11.20;;;6.07;;
38053;SDS011;23859;50.672;7.164;2022-12-08T08:01:56;17.27;;;8.15;;
38053;SDS011;23859;50.672;7.164;2022-12-08T08:04:22;15.77;;;8.52;;
38053;SDS011;23859;50.672;7.164;2022-12-08T08:06:48;16.77;;;6.97;;
38053;SDS011;23859;50.672;7.164;2022-12-08T08:09:14;21.80;;;8.02;;
38053;SDS011;23859;50.672;7.164;2022-12-08T08:11:40;12.95;;;6.65;;
38053;SDS011;23859;50.672;7.164;2022-12-08T08:14:06;13.63;;;6.68;;
38053;SDS011;23859;50.672;7.164;2022-12-08T08:16:32;11.43;;;6.30;;
38053;SDS011;23859;50.672;7.164;2022-12-08T08:18:58;14.98;;;7.05;;
38053;SDS011;23859;50.672;7.164;2022-12-08T08:21:24;14.05;;;7.10;;
38053;SDS011;23859;50.672;7.164;2022-12-08T08:23:50;14.20;;;7.85;;
38053;SDS011;23859;50.672;7.164;2022-12-08T08:26:16;12.27;;;7.03;;
38053;SDS011;23859;50.672;7.164;2022-12-08T08:28:43;12.85;;;8.15;;
38053;SDS011;23859;50.672;7.164;2022-12-08T08:31:09;15.50;;;6.82;;
38053;SDS011;23859;50.672;7.164;2022-12-08T08:33:36;13.13;;;7.57;;
38053;SDS011;23859;50.672;7.164;2022-12-08T08:36:05;14.05;;;7.20;;
38053;SDS011;23859;50.672;7.164;2022-12-08T08:38:32;13.73;;;7.50;;
38053;SDS011;23859;50.672;7.164;2022-12-08T08:40:59;12.73;;;7.38;;
38053;SDS011;23859;50.672;7.164;2022-12-08T08:43:30;14.27;;;7.15;;
38053;SDS011;23859;50.672;7.164;2022-12-08T08:45:57;13.88;;;7.07;;
38053;SDS011;23859;50.672;7.164;2022-12-08T08:48:27;14.57;;;7.50;;
38053;SDS011;23859;50.672;7.164;2022-12-08T08:50:54;11.68;;;6.68;;
38053;SDS011;23859;50.672;7.164;2022-12-08T08:53:21;12.82;;;6.80;;
38053;SDS011;23859;50.672;7.164;2022-12-08T08:55:48;13.43;;;6.72;;
38053;SDS011;23859;50.672;7.164;2022-12-08T08:58:14;15.82;;;7.45;;
38053;SDS011;23859;50.672;7.164;2022-12-08T09:00:41;12.98;;;7.07;;
38053;SDS011;23859;50.672;7.164;2022-12-08T09:03:07;18.48;;;7.50;;
38053;SDS011;23859;50.672;7.164;2022-12-08T09:05:33;13.68;;;6.90;;
38053;SDS011;23859;50.672;7.164;2022-12-08T09:07:59;14.38;;;7.53;;
38053;SDS011;23859;50.672;7.164;2022-12-08T09:10:25;15.30;;;6.70;;
38053;SDS011;23859;50.672;7.164;2022-12-08T09:12:51;12.15;;;7.07;;
38053;SDS011;23859;50.672;7.164;2022-12-08T09:15:17;16.30;;;6.70;;
38053;SDS011;23859;50.672;7.164;2022-12-08T09:17:44;13.52;;;6.80;;
38053;SDS011;23859;50.672;7.164;2022-12-08T09:20:10;10.63;;;7.28;;
38053;SDS011;23859;50.672;7.164;2022-12-08T09:22:37;10.65;;;6.45;;
38053;SDS011;23859;50.672;7.164;2022-12-08T09:25:03;11.27;;;6.43;;
38053;SDS011;23859;50.672;7.164;2022-12-08T09:27:29;14.13;;;6.53;;
38053;SDS011;23859;50.672;7.164;2022-12-08T09:29:55;17.85;;;7.75;;
38053;SDS011;23859;50.672;7.164;2022-12-08T09:32:21;14.27;;;7.68;;
38053;SDS011;23859;50.672;7.164;2022-12-08T09:34:47;14.85;;;6.90;;
38053;SDS011;23859;50.672;7.164;2022-12-08T09:37:13;11.10;;;7.45;;
38053;SDS011;23859;50.672;7.164;2022-12-08T09:39:39;15.77;;;8.35;;
38053;SDS011;23859;50.672;7.164;2022-12-08T09:42:05;14.35;;;6.82;;
38053;SDS011;23859;50.672;7.164;2022-12-08T09:50:04;14.47;;;7.03;;
38053;SDS011;23859;50.672;7.164;2022-12-08T09:52:46;17.77;;;7.10;;
38053;SDS011;23859;50.672;7.164;2022-12-08T09:56:08;14.35;;;7.55;;
38053;SDS011;23859;50.672;7.164;2022-12-08T09:58:28;11.60;;;6.80;;
38053;SDS011;23859;50.672;7.164;2022-12-08T10:01:17;11.77;;;6.95;;
38053;SDS011;23859;50.672;7.164;2022-12-08T10:03:44;13.02;;;6.95;;
38053;SDS011;23859;50.672;7.164;2022-12-08T10:08:44;13.45;;;7.80;;
38053;SDS011;23859;50.672;7.164;2022-12-08T10:11:39;14.63;;;7.70;;
38053;SDS011;23859;50.672;7.164;2022-12-08T10:14:13;15.15;;;8.13;;
38053;SDS011;23859;50.672;7.164;2022-12-08T10:19:21;14.10;;;7.03;;
38053;SDS011;23859;50.672;7.164;2022-12-08T10:21:49;14.13;;;7.57;;
38053;SDS011;23859;50.672;7.164;2022-12-08T10:24:30;17.55;;;8.52;;
38053;SDS011;23859;50.672;7.164;2022-12-08T10:27:03;14.75;;;7.88;;
38053;SDS011;23859;50.672;7.164;2022-12-08T10:29:35;13.10;;;8.30;;
38053;SDS011;23859;50.672;7.164;2022-12-08T10:32:01;13.70;;;7.75;;
38053;SDS011;23859;50.672;7.164;2022-12-08T10:35:05;14.75;;;8.35;;
38053;SDS011;23859;50.672;7.164;2022-12-08T10:37:34;14.13;;;8.27;;
38053;SDS011;23859;50.672;7.164;2022-12-08T10:40:02;15.45;;;7.97;;
38053;SDS011;23859;50.672;7.164;2022-12-08T10:42:36;14.23;;;7.90;;
38053;SDS011;23859;50.672;7.164;2022-12-08T10:47:34;9.43;;;7.18;;
38053;SDS011;23859;50.672;7.164;2022-12-08T10:52:32;12.65;;;7.57;;
38053;SDS011;23859;50.672;7.164;2022-12-08T10:55:03;13.63;;;7.63;;
38053;SDS011;23859;50.672;7.164;2022-12-08T10:57:38;10.55;;;6.40;;
38053;SDS011;23859;50.672;7.164;2022-12-08T11:00:04;11.23;;;6.68;;
38053;SDS011;23859;50.672;7.164;2022-12-08T11:02:31;17.08;;;6.97;;
38053;SDS011;23859;50.672;7.164;2022-12-08T11:04:57;10.68;;;6.65;;
38053;SDS011;23859;50.672;7.164;2022-12-08T11:07:24;12.43;;;6.78;;
38053;SDS011;23859;50.672;7.164;2022-12-08T11:09:52;9.55;;;6.10;;
38053;SDS011;23859;50.672;7.164;2022-12-08T11:12:22;13.25;;;6.97;;
38053;SDS011;23859;50.672;7.164;2022-12-08T11:14:56;14.80;;;6.75;;
38053;SDS011;23859;50.672;7.164;2022-12-08T11:17:27;12.90;;;6.82;;
38053;SDS011;23859;50.672;7.164;2022-12-08T11:22:39;10.40;;;6.32;;
38053;SDS011;23859;50.672;7.164;2022-12-08T11:25:11;14.27;;;6.50;;
38053;SDS011;23859;50.672;7.164;2022-12-08T11:27:49;15.32;;;6.93;;
38053;SDS011;23859;50.672;7.164;2022-12-08T11:30:20;11.75;;;6.00;;
38053;SDS011;23859;50.672;7.164;2022-12-08T11:32:56;11.70;;;5.63;;
38053;SDS011;23859;50.672;7.164;2022-12-08T11:35:43;10.35;;;5.45;;
38053;SDS011;23859;50.672;7.164;2022-12-08T11:38:16;11.50;;;5.25;;
38053;SDS011;23859;50.672;7.164;2022-12-08T11:40:52;8.15;;;5.57;;
38053;SDS011;23859;50.672;7.164;2022-12-08T11:43:25;9.80;;;5.68;;
38053;SDS011;23859;50.672;7.164;2022-12-08T11:46:00;13.32;;;6.00;;
38053;SDS011;23859;50.672;7.164;2022-12-08T11:48:43;11.82;;;5.55;;
38053;SDS011;23859;50.672;7.164;2022-12-08T11:51:15;8.68;;;5.32;;
38053;SDS011;23859;50.672;7.164;2022-12-08T11:54:09;13.27;;;6.18;;
38053;SDS011;23859;50.672;7.164;2022-12-08T11:59:35;9.32;;;4.65;;
38053;SDS011;23859;50.672;7.164;2022-12-08T12:02:06;10.82;;;5.03;;
38053;SDS011;23859;50.672;7.164;2022-12-08T12:04:47;10.65;;;4.82;;
38053;SDS011;23859;50.672;7.164;2022-12-08T12:07:43;9.65;;;4.60;;
38053;SDS011;23859;50.672;7.164;2022-12-08T12:13:24;7.22;;;4.22;;
38053;SDS011;23859;50.672;7.164;2022-12-08T12:19:04;14.00;;;4.22;;
38053;SDS011;23859;50.672;7.164;2022-12-08T12:21:38;11.68;;;4.07;;
38053;SDS011;23859;50.672;7.164;2022-12-08T12:24:31;10.73;;;3.70;;
38053;SDS011;23859;50.672;7.164;2022-12-08T12:29:30;8.27;;;4.65;;
38053;SDS011;23859;50.672;7.164;2022-12-08T12:32:02;10.63;;;4.20;;
38053;SDS011;23859;50.672;7.164;2022-12-08T12:34:34;6.85;;;4.45;;
38053;SDS011;23859;50.672;7.164;2022-12-08T12:37:12;12.40;;;3.88;;
38053;SDS011;23859;50.672;7.164;2022-12-08T12:42:34;10.65;;;3.42;;
38053;SDS011;23859;50.672;7.164;2022-12-08T12:47:49;5.55;;;3.70;;
38053;SDS011;23859;50.672;7.164;2022-12-08T12:55:56;8.73;;;4.72;;
38053;SDS011;23859;50.672;7.164;2022-12-08T13:03:39;7.72;;;3.75;;
38053;SDS011;23859;50.672;7.164;2022-12-08T13:06:07;7.57;;;3.67;;
38053;SDS011;23859;50.672;7.164;2022-12-08T13:08:38;11.40;;;3.97;;
38053;SDS011;23859;50.672;7.164;2022-12-08T13:11:15;8.68;;;3.70;;
38053;SDS011;23859;50.672;7.164;2022-12-08T13:16:53;11.23;;;3.90;;
38053;SDS011;23859;50.672;7.164;2022-12-08T13:19:22;6.57;;;3.63;;
38053;SDS011;23859;50.672;7.164;2022-12-08T13:21:49;6.32;;;3.22;;
38053;SDS011;23859;50.672;7.164;2022-12-08T13:29:33;5.65;;;2.33;;
38053;SDS011;23859;50.672;7.164;2022-12-08T13:34:39;7.22;;;3.00;;
38053;SDS011;23859;50.672;7.164;2022-12-08T13:42:15;4.03;;;2.55;;
38053;SDS011;23859;50.672;7.164;2022-12-08T13:47:27;6.28;;;3.05;;
38053;SDS011;23859;50.672;7.164;2022-12-08T13:50:03;3.88;;;2.30;;
38053;SDS011;23859;50.672;7.164;2022-12-08T13:52:47;5.97;;;3.17;;
38053;SDS011;23859;50.672;7.164;2022-12-08T13:55:42;4.38;;;2.30;;
38053;SDS011;23859;50.672;7.164;2022-12-08T13:58:24;3.35;;;2.22;;
38053;SDS011;23859;50.672;7.164;2022-12-08T14:03:33;6.18;;;2.20;;
38053;SDS011;23859;50.672;7.164;2022-12-08T14:06:37;3.58;;;2.00;;
38053;SDS011;23859;50.672;7.164;2022-12-08T14:09:06;3.53;;;2.13;;
38053;SDS011;23859;50.672;7.164;2022-12-08T14:11:51;3.88;;;2.15;;
38053;SDS011;23859;50.672;7.164;2022-12-08T14:14:42;4.40;;;2.20;;
38053;SDS011;23859;50.672;7.164;2022-12-08T14:17:13;5.93;;;2.30;;
38053;SDS011;23859;50.672;7.164;2022-12-08T14:19:52;4.95;;;2.10;;
38053;SDS011;23859;50.672;7.164;2022-12-08T14:22:22;3.20;;;2.35;;
38053;SDS011;23859;50.672;7.164;2022-12-08T14:24:49;5.43;;;2.65;;
38053;SDS011;23859;50.672;7.164;2022-12-08T14:27:17;6.63;;;2.78;;
38053;SDS011;23859;50.672;7.164;2022-12-08T14:30:34;6.18;;;2.90;;
38053;SDS011;23859;50.672;7.164;2022-12-08T14:32:41;5.55;;;2.60;;
38053;SDS011;23859;50.672;7.164;2022-12-08T14:35:19;7.22;;;3.33;;
38053;SDS011;23859;50.672;7.164;2022-12-08T14:37:48;7.07;;;2.58;;
38053;SDS011;23859;50.672;7.164;2022-12-08T14:40:20;3.70;;;2.55;;
38053;SDS011;23859;50.672;7.164;2022-12-08T14:42:52;6.40;;;3.17;;
38053;SDS011;23859;50.672;7.164;2022-12-08T14:45:29;5.35;;;2.53;;
38053;SDS011;23859;50.672;7.164;2022-12-08T14:48:44;5.47;;;3.15;;
38053;SDS011;23859;50.672;7.164;2022-12-08T14:58:49;6.43;;;3.28;;
38053;SDS011;23859;50.672;7.164;2022-12-08T15:01:47;5.88;;;3.00;;
38053;SDS011;23859;50.672;7.164;2022-12-08T15:04:18;7.80;;;4.07;;
38053;SDS011;23859;50.672;7.164;2022-12-08T15:06:56;5.45;;;3.17;;
38053;SDS011;23859;50.672;7.164;2022-12-08T15:09:31;10.20;;;4.97;;
38053;SDS011;23859;50.672;7.164;2022-12-08T15:14:38;8.13;;;3.95;;
38053;SDS011;23859;50.672;7.164;2022-12-08T15:17:34;8.40;;;3.45;;
38053;SDS011;23859;50.672;7.164;2022-12-08T15:20:04;10.00;;;4.00;;
38053;SDS011;23859;50.672;7.164;2022-12-08T15:22:48;10.68;;;3.90;;
38053;SDS011;23859;50.672;7.164;2022-12-08T15:25:14;5.55;;;3.40;;
38053;SDS011;23859;50.672;7.164;2022-12-08T15:27:41;7.68;;;3.80;;
38053;SDS011;23859;50.672;7.164;2022-12-08T15:30:16;9.48;;;3.97;;
38053;SDS011;23859;50.672;7.164;2022-12-08T15:32:43;9.82;;;4.03;;
38053;SDS011;23859;50.672;7.164;2022-12-08T15:35:13;7.40;;;4.07;;
38053;SDS011;23859;50.672;7.164;2022-12-08T15:37:39;8.98;;;4.05;;
38053;SDS011;23859;50.672;7.164;2022-12-08T15:40:06;6.97;;;3.70;;
38053;SDS011;23859;50.672;7.164;2022-12-08T15:42:42;9.07;;;3.50;;
38053;SDS011;23859;50.672;7.164;2022-12-08T15:45:12;10.48;;;3.58;;
38053;SDS011;23859;50.672;7.164;2022-12-08T15:47:43;4.38;;;3.22;;
38053;SDS011;23859;50.672;7.164;2022-12-08T15:50:19;8.63;;;3.83;;
38053;SDS011;23859;50.672;7.164;2022-12-08T15:52:46;5.18;;;2.42;;
38053;SDS011;23859;50.672;7.164;2022-12-08T15:55:14;6.05;;;2.70;;
38053;SDS011;23859;50.672;7.164;2022-12-08T15:57:48;6.10;;;2.97;;
38053;SDS011;23859;50.672;7.164;2022-12-08T16:02:47;2.90;;;2.60;;
38053;SDS011;23859;50.672;7.164;2022-12-08T16:05:13;4.55;;;2.85;;
38053;SDS011;23859;50.672;7.164;2022-12-08T16:07:39;4.82;;;2.58;;
38053;SDS011;23859;50.672;7.164;2022-12-08T16:10:06;5.78;;;2.15;;
38053;SDS011;23859;50.672;7.164;2022-12-08T16:12:38;3.17;;;2.40;;
38053;SDS011;23859;50.672;7.164;2022-12-08T16:15:23;5.60;;;2.08;;
38053;SDS011;23859;50.672;7.164;2022-12-08T16:17:49;3.42;;;2.40;;
38053;SDS011;23859;50.672;7.164;2022-12-08T16:20:15;6.45;;;2.17;;
38053;SDS011;23859;50.672;7.164;2022-12-08T16:22:42;2.88;;;2.35;;
38053;SDS011;23859;50.672;7.164;2022-12-08T16:25:09;4.05;;;2.83;;
38053;SDS011;23859;50.672;7.164;2022-12-08T16:27:37;2.97;;;1.80;;
38053;SDS011;23859;50.672;7.164;2022-12-08T16:30:04;4.57;;;2.10;;
38053;SDS011;23859;50.672;7.164;2022-12-08T16:32:32;3.88;;;2.10;;
38053;SDS011;23859;50.672;7.164;2022-12-08T16:34:58;5.68;;;2.17;;
38053;SDS011;23859;50.672;7.164;2022-12-08T16:37:25;4.28;;;2.17;;
38053;SDS011;23859;50.672;7.164;2022-12-08T16:39:53;3.22;;;2.25;;
38053;SDS011;23859;50.672;7.164;2022-12-08T16:42:24;5.97;;;2.53;;
38053;SDS011;23859;50.672;7.164;2022-12-08T16:45:08;3.83;;;1.95;;
38053;SDS011;23859;50.672;7.164;2022-12-08T16:47:38;6.55;;;2.80;;